Latest Coastal Weather Observations for Yanakie

IDV60701

Issued at 11:31 am EDT Tuesday 3 March 2015 (issued every 10 minutes, with the page automatically refreshed every 10 minutes)

About coastal observations | Map of coastal stations | Coastal observations for VIC | Marine services | Other Formats
Station Details ID: 085301 Name: YANAKIE Lat: -38.81 Lon: 146.19 Height: 13.3 m
Data from the previous 72 hours. | See also: Recent months at Yanakie
Date/Time
EDT
Temp

°C
Wind Pressure Rain
since 9am
mm
Weather Cloud Vis
km
Sea
Height
m
Swell
Dir
 
Speed
knots
Gust
knots
hPa Trend Height
m
Period
s
Dir
03/11:30am 21.5 SSW 8 13 1017.4 - 0.0 - - - - - - -
03/11:00am 20.7 SSW 8 11 1017.5 - 0.0 - - - - - - -
03/10:30am 18.9 SW 9 11 1017.4 - 0.0 - - - - - - -
03/10:00am 19.2 SW 8 12 1017.1 - 0.0 - - - - - - -
03/09:30am 17.0 WSW 6 9 1017.0 - 0.0 - - - - - - -
03/09:00am 16.3 WNW 3 4 1016.6 - 0.0 - - - - - - -
03/08:30am 14.2 WNW 3 3 1016.6 - 0.0 - - - - - - -
03/08:00am 13.8 WNW 2 3 1016.6 - 0.0 - - - - - - -
03/07:30am 12.6 NW 2 2 1016.2 - 0.0 - - - - - - -
03/07:00am 12.6 NW 3 4 1015.8 - 0.0 - - - - - - -
03/06:30am 11.9 W 1 2 1015.2 - 0.0 - - - - - - -
03/06:00am 12.6 WSW 1 2 1015.0 - 0.0 - - - - - - -
03/05:30am 12.5 WSW 1 2 1014.9 - 0.0 - - - - - - -
03/05:00am 12.8 W 3 4 1014.4 - 0.0 - - - - - - -
03/04:30am 12.9 W 2 3 1014.6 - 0.0 - - - - - - -
03/04:00am 13.0 WNW 2 2 1014.8 - 0.0 - - - - - - -
03/03:30am 13.3 WNW 3 4 1015.1 - 0.0 - - - - - - -
03/03:00am 13.8 WNW 2 3 1014.9 - 0.0 - - - - - - -
03/02:30am 14.0 W 4 5 1015.1 - 0.0 - - - - - - -
03/02:00am 13.5 W 3 4 1014.9 - 0.0 - - - - - - -
03/01:30am 13.8 W 2 3 1014.7 - 0.0 - - - - - - -
03/01:00am 13.5 S 1 2 1014.7 - 0.0 - - - - - - -
03/12:30am 13.4 CALM 0 0 1014.9 - 0.0 - - - - - - -
03/12:00am 13.7 WSW 2 3 1015.1 - 0.0 - - - - - - -
 
Date/Time
EDT
Temp

°C
Wind Pressure Rain
since 9am
mm
Weather Cloud Vis
km
Sea
Height
m
Swell
Dir
 
Speed
knots
Gust
knots
hPa Trend Height
m
Period
s
Dir
02/11:30pm 14.3 CALM 0 0 1015.3 - 0.0 - - - - - - -
02/11:00pm 14.7 N 1 3 1015.5 - 0.0 - - - - - - -
02/10:30pm 16.3 E 2 3 1015.7 - 0.0 - - - - - - -
02/10:00pm 16.4 ENE 3 5 1015.6 - 0.0 - - - - - - -
02/09:30pm 16.7 NE 2 3 1015.9 - 0.0 - - - - - - -
02/09:00pm 17.0 ENE 5 8 1015.2 - 0.0 - - - - - - -
02/08:30pm 17.2 E 4 6 1015.2 - 0.0 - - - - - - -
02/08:00pm 17.1 E 4 7 1014.7 - 0.0 - - - - - - -
02/07:30pm 17.7 E 4 6 1014.6 - 0.0 - - - - - - -
02/07:00pm 18.3 E 6 10 1014.2 - 0.0 - - - - - - -
02/06:30pm 18.8 ENE 8 11 1014.2 - 0.0 - - - - - - -
02/06:00pm 19.2 ENE 9 13 1014.2 - 0.0 - - - - - - -
02/05:30pm 19.6 ENE 8 10 1014.9 - 0.0 - - - - - - -
02/05:00pm 20.0 E 7 10 1014.7 - 0.0 - - - - - - -
02/04:30pm 20.4 E 7 11 1014.9 - 0.0 - - - - - - -
02/04:00pm 19.6 ENE 8 13 1014.6 - 0.0 - - - - - - -
02/03:30pm 20.6 E 7 11 1014.8 - 0.0 - - - - - - -
02/03:00pm 20.6 ENE 7 10 1015.5 - 0.0 - - - - - - -
02/02:30pm 21.0 ENE 6 11 1015.8 - 0.0 - - - - - - -
02/02:00pm 22.2 E 5 8 1015.8 - 0.0 - - - - - - -
02/01:30pm 21.6 E 5 8 1016.2 - 0.0 - - - - - - -
02/01:00pm 20.6 E 6 9 1016.4 - 0.0 - - - - - - -
02/12:30pm 20.1 E 6 12 1017.2 - 0.0 - - - - - - -
02/12:00pm 19.8 ENE 7 12 1017.5 - 0.0 - - - - - - -
02/11:30am 19.7 ENE 6 10 1018.0 - 0.0 - - - - - - -
02/11:00am 18.5 ENE 8 13 1018.3 - 0.0 - - - - - - -
02/10:30am 18.7 ENE 6 8 1018.8 - 0.0 - - - - - - -
02/10:00am 18.1 ENE 4 7 1018.8 - 0.0 - - - - - - -
02/09:30am 17.2 E 2 4 1018.6 - 0.0 - - - - - - -
02/09:00am 15.2 CALM 0 0 1018.7 - 0.2 - - - - - - -
02/08:30am 12.4 CALM 0 0 1018.9 - 0.2 - - - - - - -
02/08:00am 9.7 CALM 0 0 1018.8 - 0.2 - - - - - - -
02/07:30am 8.7 CALM 0 0 1018.7 - 0.2 - - - - - - -
02/07:00am 8.4 CALM 0 3 1018.4 - 0.2 - - - - - - -
02/06:30am 7.5 CALM 0 0 1018.4 - 0.2 - - - - - - -
02/06:00am 7.5 CALM 0 0 1018.1 - 0.2 - - - - - - -
02/05:30am 8.4 NE 3 3 1018.0 - 0.2 - - - - - - -
02/05:00am 8.5 CALM 0 0 1018.0 - 0.2 - - - - - - -
02/04:30am 8.6 CALM 0 0 1018.0 - 0.2 - - - - - - -
02/04:00am 8.2 NNW 1 2 1018.1 - 0.2 - - - - - - -
02/03:30am 8.9 WNW 1 2 1018.3 - 0.2 - - - - - - -
02/03:00am 9.1 NW 3 4 1018.4 - 0.2 - - - - - - -
02/02:30am 9.8 NW 4 6 1017.9 - 0.2 - - - - - - -
02/02:00am 10.5 WNW 3 3 1017.6 - 0.2 - - - - - - -
02/01:30am 11.2 WNW 2 3 1017.9 - 0.2 - - - - - - -
02/01:00am 13.2 WNW 2 3 1017.6 - 0.2 - - - - - - -
02/12:30am 13.8 NW 4 5 1017.9 - 0.2 - - - - - - -
02/12:00am 14.0 WSW 4 6 1017.9 - 0.2 - - - - - - -
 
Date/Time
EDT
Temp

°C
Wind Pressure Rain
since 9am
mm
Weather Cloud Vis
km
Sea
Height
m
Swell
Dir
 
Speed
knots
Gust
knots
hPa Trend Height
m
Period
s
Dir
01/11:30pm 13.7 SSW 4 6 1017.9 - 0.2 - - - - - - -
01/11:00pm 13.7 SW 4 5 1018.1 - 0.2 - - - - - - -
01/10:30pm 13.8 SW 7 11 1018.0 - 0.2 - - - - - - -
01/10:00pm 14.1 SW 7 12 1018.2 - 0.2 - - - - - - -
01/09:30pm 14.1 SW 7 9 1017.8 - 0.2 - - - - - - -
01/09:00pm 15.0 WSW 10 13 1017.3 - 0.2 - - - - - - -
01/08:30pm 15.2 SW 8 12 1017.1 - 0.2 - - - - - - -
01/08:00pm 15.6 WSW 10 16 1017.2 - 0.2 - - - - - - -
01/07:30pm 16.2 WSW 10 14 1016.7 - 0.2 - - - - - - -
01/07:00pm 16.8 SW 13 17 1016.6 - 0.2 - - - - - - -
01/06:30pm 18.3 SW 13 18 1016.5 - 0.2 - - - - - - -
01/06:00pm 18.5 SW 13 17 1016.0 - 0.2 - - - - - - -
01/05:30pm 18.8 SW 14 20 1015.6 - 0.2 - - - - - - -
01/05:00pm 19.3 SW 14 18 1015.3 - 0.2 - - - - - - -
01/04:30pm 20.1 SW 16 21 1015.4 - 0.2 - - - - - - -
01/04:00pm 19.5 SW 15 19 1015.0 - 0.2 - - - - - - -
01/03:30pm 21.0 SW 17 21 1014.7 - 0.2 - - - - - - -
01/03:00pm 21.7 SW 15 20 1014.5 - 0.2 - - - - - - -
01/02:30pm 21.2 SW 15 23 1014.2 - 0.2 - - - - - - -
01/02:00pm 21.0 SW 17 21 1013.9 - 0.2 - - - - - - -
01/01:30pm 20.8 WSW 17 22 1013.8 - 0.2 - - - - - - -
01/01:00pm 21.0 WSW 16 21 1013.6 - 0.2 - - - - - - -
01/12:30pm 20.9 SW 17 22 1013.2 - 0.2 - - - - - - -
01/12:00pm 20.7 WSW 17 23 1013.0 - 0.2 - - - - - - -
01/11:30am 19.7 SW 17 22 1012.7 - 0.2 - - - - - - -
01/11:00am 19.7 SW 18 22 1012.2 - 0.2 - - - - - - -
01/10:30am 18.4 SW 16 22 1011.7 - 0.0 - - - - - - -
01/10:00am 18.0 WSW 16 21 1011.1 - 0.0 - - - - - - -
01/09:30am 18.2 WSW 15 22 1010.5 - 0.0 - - - - - - -
01/09:00am 17.6 SW 16 22 1010.0 - 9.6 - - - - - - -
01/08:30am 17.0 SW 14 19 1009.6 - 9.6 - - - - - - -
01/08:00am 16.4 WSW 14 19 1009.0 - 9.6 - - - - - - -
01/07:30am 16.3 SW 14 20 1008.4 - 9.6 - - - - - - -
01/07:00am 15.6 SW 14 21 1007.9 - 9.6 - - - - - - -
01/06:30am 15.7 WSW 15 21 1007.2 - 9.6 - - - - - - -
01/06:00am 16.1 SW 15 20 1006.6 - 9.6 - - - - - - -
01/05:30am 16.1 SW 13 18 1005.9 - 9.6 - - - - - - -
01/05:00am 15.7 SW 17 21 1005.5 - 9.6 - - - - - - -
01/04:30am 15.9 SW 18 23 1005.1 - 9.6 - - - - - - -
01/04:00am 15.6 SW 16 22 1004.8 - 9.6 - - - - - - -
01/03:30am 15.7 SW 16 21 1004.7 - 9.6 - - - - - - -
01/03:00am 16.2 SW 14 19 1004.5 - 9.6 Rain - - - - - -
01/02:30am 16.6 SW 16 22 1004.5 - 9.4 - - - - - - -
01/02:00am 17.4 WSW 12 18 1004.5 - 9.0 - - - - - - -
01/01:30am 18.0 NW 7 11 1004.2 - 8.0 - - - - - - -
01/01:00am 17.9 NNE 2 4 1004.2 - 7.8 - - - - - - -
01/12:30am 17.8 NNE 1 3 1004.0 - 7.8 - - - - - - -
01/12:00am 18.1 NNW 5 7 1004.8 - 7.2 Rain - - - - - -
 
Date/Time
EDT
Temp

°C
Wind Pressure Rain
since 9am
mm
Weather Cloud Vis
km
Sea
Height
m
Swell
Dir
 
Speed
knots
Gust
knots
hPa Trend Height
m
Period
s
Dir
28/11:30pm 18.4 WSW 4 5 1005.4 - 3.0 - - - - - - -
28/11:00pm 18.4 SW 10 13 1005.0 - 1.4 - - - - - - -
28/10:30pm 18.6 SW 16 24 1004.7 - 0.8 - - - - - - -
28/10:00pm 20.1 W 18 26 1004.2 - 0.4 - - - - - - -
28/09:53pm 20.9 WSW 8 26 1004.2 - 0.2 - - - - - - -
28/09:47pm 21.7 ESE 2 5 1003.0 - 0.0 - - - - - - -
28/09:30pm 21.9 E 5 9 1000.9 - 0.0 - - - - - - -
28/09:00pm 21.2 E 6 9 1000.5 - 0.0 - - - - - - -
28/08:30pm 20.9 E 7 12 1000.1 - 0.0 - - - - - - -
28/08:00pm 21.2 E 8 14 1000.6 - 0.0 - - - - - - -
28/07:30pm 21.4 ENE 10 16 1001.0 - 0.0 - - - - - - -
28/07:00pm 22.2 ENE 9 13 1001.4 - 0.0 - - - - - - -
28/06:30pm 22.9 E 8 13 1001.9 - 0.0 - - - - - - -
28/06:00pm 22.6 E 6 11 1002.3 - 0.0 - - - - - - -
28/05:30pm 23.1 SE 2 5 1002.7 - 0.0 - - - - - - -
28/05:00pm 24.1 SSE 3 5 1003.0 - 0.0 - - - - - - -
28/04:30pm 25.0 S 4 5 1002.9 - 0.0 - - - - - - -
28/04:00pm 25.1 SSE 4 6 1003.2 - 0.0 - - - - - - -
28/03:30pm 25.5 SSE 2 5 1003.7 - 0.0 - - - - - - -
28/03:00pm 25.9 SW 2 5 1004.1 - 0.0 - - - - - - -
28/02:30pm 24.9 WNW 4 6 1004.3 - 0.0 - - - - - - -
28/02:00pm 24.3 WNW 6 9 1005.1 - 0.0 - - - - - - -
28/01:30pm 24.2 W 7 10 1004.9 - 0.0 - - - - - - -
28/01:00pm 25.7 WNW 12 18 1005.3 - 0.0 - - - - - - -
28/12:50pm 25.8 WNW 15 24 1005.6 - 0.0 - - - - - - -
28/12:30pm 23.4 NE 2 5 1005.6 - 0.0 - - - - - - -
28/12:00pm 21.6 ENE 4 6 1005.2 - 0.0 - - - - - - -

Other Formats:

Comma delimited format used in spreadsheet applications
http://www.bom.gov.au/fwo/IDV60701/IDV60701.94911.axf

JavaScript Object Notation format (JSON) in row-major order
http://www.bom.gov.au/fwo/IDV60701/IDV60701.94911.json